sensor_id;sensor_type;location;lat;lon;timestamp;P1;durP1;ratioP1;P2;durP2;ratioP2
10295;SDS011;5193;51.032;6.356;2023-06-04T00:02:22;2.50;;;1.00;;
10295;SDS011;5193;51.032;6.356;2023-06-04T00:04:48;1.87;;;1.00;;
10295;SDS011;5193;51.032;6.356;2023-06-04T00:07:13;2.33;;;1.10;;
10295;SDS011;5193;51.032;6.356;2023-06-04T00:09:39;4.83;;;1.37;;
10295;SDS011;5193;51.032;6.356;2023-06-04T00:12:05;2.43;;;1.20;;
10295;SDS011;5193;51.032;6.356;2023-06-04T00:14:31;3.07;;;1.57;;
10295;SDS011;5193;51.032;6.356;2023-06-04T00:16:56;2.57;;;1.17;;
10295;SDS011;5193;51.032;6.356;2023-06-04T00:19:22;1.70;;;1.30;;
10295;SDS011;5193;51.032;6.356;2023-06-04T00:21:48;2.83;;;1.40;;
10295;SDS011;5193;51.032;6.356;2023-06-04T00:24:13;2.20;;;1.00;;
10295;SDS011;5193;51.032;6.356;2023-06-04T00:26:39;1.73;;;1.33;;
10295;SDS011;5193;51.032;6.356;2023-06-04T00:29:04;2.13;;;1.07;;
10295;SDS011;5193;51.032;6.356;2023-06-04T00:31:30;1.30;;;1.07;;
10295;SDS011;5193;51.032;6.356;2023-06-04T00:33:56;5.07;;;1.33;;
10295;SDS011;5193;51.032;6.356;2023-06-04T00:36:22;2.97;;;1.20;;
10295;SDS011;5193;51.032;6.356;2023-06-04T00:38:47;1.90;;;1.00;;
10295;SDS011;5193;51.032;6.356;2023-06-04T00:41:13;2.30;;;1.20;;
10295;SDS011;5193;51.032;6.356;2023-06-04T00:43:38;2.43;;;1.10;;
10295;SDS011;5193;51.032;6.356;2023-06-04T00:46:05;2.30;;;1.13;;
10295;SDS011;5193;51.032;6.356;2023-06-04T00:48:31;2.07;;;1.30;;
10295;SDS011;5193;51.032;6.356;2023-06-04T00:50:57;3.53;;;1.23;;
10295;SDS011;5193;51.032;6.356;2023-06-04T00:53:23;1.80;;;1.00;;
10295;SDS011;5193;51.032;6.356;2023-06-04T00:55:50;2.90;;;1.07;;
10295;SDS011;5193;51.032;6.356;2023-06-04T00:58:16;3.87;;;1.20;;
10295;SDS011;5193;51.032;6.356;2023-06-04T01:00:42;1.53;;;1.23;;
10295;SDS011;5193;51.032;6.356;2023-06-04T01:03:10;2.83;;;1.40;;
10295;SDS011;5193;51.032;6.356;2023-06-04T01:05:44;3.13;;;1.20;;
10295;SDS011;5193;51.032;6.356;2023-06-04T01:08:12;2.70;;;1.43;;
10295;SDS011;5193;51.032;6.356;2023-06-04T01:10:49;2.50;;;1.30;;
10295;SDS011;5193;51.032;6.356;2023-06-04T01:13:18;4.03;;;1.10;;
10295;SDS011;5193;51.032;6.356;2023-06-04T01:15:44;1.93;;;1.23;;
10295;SDS011;5193;51.032;6.356;2023-06-04T01:18:10;5.90;;;1.50;;
10295;SDS011;5193;51.032;6.356;2023-06-04T01:26:04;2.87;;;1.30;;
10295;SDS011;5193;51.032;6.356;2023-06-04T01:28:30;1.50;;;1.07;;
10295;SDS011;5193;51.032;6.356;2023-06-04T01:30:58;2.27;;;1.50;;
10295;SDS011;5193;51.032;6.356;2023-06-04T01:33:26;2.53;;;0.93;;
10295;SDS011;5193;51.032;6.356;2023-06-04T01:35:52;3.60;;;1.30;;
10295;SDS011;5193;51.032;6.356;2023-06-04T01:38:17;2.30;;;1.50;;
10295;SDS011;5193;51.032;6.356;2023-06-04T01:40:43;1.63;;;1.20;;
10295;SDS011;5193;51.032;6.356;2023-06-04T01:43:09;3.73;;;1.37;;
10295;SDS011;5193;51.032;6.356;2023-06-04T01:45:35;5.50;;;1.10;;
10295;SDS011;5193;51.032;6.356;2023-06-04T01:48:01;3.07;;;1.40;;
10295;SDS011;5193;51.032;6.356;2023-06-04T01:50:28;3.50;;;1.30;;
10295;SDS011;5193;51.032;6.356;2023-06-04T01:52:53;1.50;;;1.30;;
10295;SDS011;5193;51.032;6.356;2023-06-04T01:55:19;3.00;;;1.60;;
10295;SDS011;5193;51.032;6.356;2023-06-04T01:57:45;1.80;;;1.37;;
10295;SDS011;5193;51.032;6.356;2023-06-04T02:00:15;3.10;;;1.40;;
10295;SDS011;5193;51.032;6.356;2023-06-04T02:02:41;2.70;;;1.40;;
10295;SDS011;5193;51.032;6.356;2023-06-04T02:05:09;4.23;;;1.60;;
10295;SDS011;5193;51.032;6.356;2023-06-04T02:07:36;3.70;;;1.40;;
10295;SDS011;5193;51.032;6.356;2023-06-04T02:10:06;1.83;;;1.20;;
10295;SDS011;5193;51.032;6.356;2023-06-04T02:12:36;3.07;;;1.43;;
10295;SDS011;5193;51.032;6.356;2023-06-04T02:15:02;4.60;;;1.43;;
10295;SDS011;5193;51.032;6.356;2023-06-04T02:17:29;5.80;;;1.70;;
10295;SDS011;5193;51.032;6.356;2023-06-04T02:19:57;4.47;;;1.80;;
10295;SDS011;5193;51.032;6.356;2023-06-04T02:22:24;2.17;;;1.40;;
10295;SDS011;5193;51.032;6.356;2023-06-04T02:24:50;2.33;;;1.77;;
10295;SDS011;5193;51.032;6.356;2023-06-04T02:27:16;2.93;;;1.70;;
10295;SDS011;5193;51.032;6.356;2023-06-04T02:29:42;5.47;;;1.60;;
10295;SDS011;5193;51.032;6.356;2023-06-04T02:32:08;2.30;;;1.40;;
10295;SDS011;5193;51.032;6.356;2023-06-04T02:34:34;3.87;;;1.60;;
10295;SDS011;5193;51.032;6.356;2023-06-04T02:37:00;2.70;;;1.90;;
10295;SDS011;5193;51.032;6.356;2023-06-04T02:39:27;2.67;;;1.60;;
10295;SDS011;5193;51.032;6.356;2023-06-04T02:41:53;4.90;;;1.53;;
10295;SDS011;5193;51.032;6.356;2023-06-04T02:44:18;3.10;;;1.67;;
10295;SDS011;5193;51.032;6.356;2023-06-04T02:46:44;2.93;;;1.80;;
10295;SDS011;5193;51.032;6.356;2023-06-04T02:49:10;1.43;;;1.27;;
10295;SDS011;5193;51.032;6.356;2023-06-04T02:51:42;3.73;;;1.60;;
10295;SDS011;5193;51.032;6.356;2023-06-04T02:54:09;6.33;;;1.63;;
10295;SDS011;5193;51.032;6.356;2023-06-04T02:56:35;4.53;;;1.70;;
10295;SDS011;5193;51.032;6.356;2023-06-04T02:59:02;2.67;;;1.83;;
10295;SDS011;5193;51.032;6.356;2023-06-04T03:01:28;4.67;;;2.33;;
10295;SDS011;5193;51.032;6.356;2023-06-04T03:03:55;3.00;;;1.80;;
10295;SDS011;5193;51.032;6.356;2023-06-04T03:06:22;1.90;;;1.60;;
10295;SDS011;5193;51.032;6.356;2023-06-04T03:08:48;3.10;;;1.90;;
10295;SDS011;5193;51.032;6.356;2023-06-04T03:11:15;5.10;;;1.87;;
10295;SDS011;5193;51.032;6.356;2023-06-04T03:13:41;4.93;;;1.90;;
10295;SDS011;5193;51.032;6.356;2023-06-04T03:16:07;5.37;;;2.00;;
10295;SDS011;5193;51.032;6.356;2023-06-04T03:18:35;3.03;;;2.00;;
10295;SDS011;5193;51.032;6.356;2023-06-04T03:21:10;4.17;;;1.90;;
10295;SDS011;5193;51.032;6.356;2023-06-04T03:23:38;2.47;;;1.90;;
10295;SDS011;5193;51.032;6.356;2023-06-04T03:26:05;5.97;;;2.07;;
10295;SDS011;5193;51.032;6.356;2023-06-04T03:28:31;3.13;;;2.07;;
10295;SDS011;5193;51.032;6.356;2023-06-04T03:30:58;4.97;;;2.10;;
10295;SDS011;5193;51.032;6.356;2023-06-04T03:33:25;2.73;;;1.90;;
10295;SDS011;5193;51.032;6.356;2023-06-04T03:35:50;2.90;;;1.83;;
10295;SDS011;5193;51.032;6.356;2023-06-04T03:38:17;3.13;;;1.87;;
10295;SDS011;5193;51.032;6.356;2023-06-04T03:40:43;3.57;;;1.77;;
10295;SDS011;5193;51.032;6.356;2023-06-04T03:43:09;3.83;;;2.00;;
10295;SDS011;5193;51.032;6.356;2023-06-04T03:45:35;6.77;;;1.77;;
10295;SDS011;5193;51.032;6.356;2023-06-04T03:48:01;2.27;;;1.80;;
10295;SDS011;5193;51.032;6.356;2023-06-04T03:50:26;3.50;;;2.00;;
10295;SDS011;5193;51.032;6.356;2023-06-04T03:52:52;3.10;;;1.87;;
10295;SDS011;5193;51.032;6.356;2023-06-04T03:55:18;2.83;;;1.87;;
10295;SDS011;5193;51.032;6.356;2023-06-04T03:57:44;4.17;;;1.93;;
10295;SDS011;5193;51.032;6.356;2023-06-04T04:00:10;2.83;;;1.90;;
10295;SDS011;5193;51.032;6.356;2023-06-04T04:02:41;2.40;;;1.80;;
10295;SDS011;5193;51.032;6.356;2023-06-04T04:05:07;2.23;;;1.73;;
10295;SDS011;5193;51.032;6.356;2023-06-04T04:07:32;4.40;;;1.80;;
10295;SDS011;5193;51.032;6.356;2023-06-04T04:09:58;4.53;;;2.27;;
10295;SDS011;5193;51.032;6.356;2023-06-04T04:12:24;7.03;;;2.13;;
10295;SDS011;5193;51.032;6.356;2023-06-04T04:14:49;5.07;;;1.73;;
10295;SDS011;5193;51.032;6.356;2023-06-04T04:17:15;8.10;;;2.50;;
10295;SDS011;5193;51.032;6.356;2023-06-04T04:19:40;3.30;;;2.00;;
10295;SDS011;5193;51.032;6.356;2023-06-04T04:22:06;6.73;;;2.03;;
10295;SDS011;5193;51.032;6.356;2023-06-04T04:24:33;3.80;;;1.90;;
10295;SDS011;5193;51.032;6.356;2023-06-04T04:27:02;3.97;;;1.80;;
10295;SDS011;5193;51.032;6.356;2023-06-04T04:29:28;2.60;;;1.80;;
10295;SDS011;5193;51.032;6.356;2023-06-04T04:31:57;6.00;;;2.33;;
10295;SDS011;5193;51.032;6.356;2023-06-04T04:34:26;5.67;;;2.00;;
10295;SDS011;5193;51.032;6.356;2023-06-04T04:36:52;6.33;;;2.10;;
10295;SDS011;5193;51.032;6.356;2023-06-04T04:39:22;3.70;;;2.40;;
10295;SDS011;5193;51.032;6.356;2023-06-04T04:41:49;4.17;;;1.93;;
10295;SDS011;5193;51.032;6.356;2023-06-04T04:44:14;4.03;;;2.00;;
10295;SDS011;5193;51.032;6.356;2023-06-04T04:46:40;5.37;;;2.17;;
10295;SDS011;5193;51.032;6.356;2023-06-04T04:49:06;4.10;;;2.13;;
10295;SDS011;5193;51.032;6.356;2023-06-04T04:51:31;2.30;;;1.90;;
10295;SDS011;5193;51.032;6.356;2023-06-04T04:53:57;4.47;;;2.20;;
10295;SDS011;5193;51.032;6.356;2023-06-04T04:56:25;5.20;;;1.87;;
10295;SDS011;5193;51.032;6.356;2023-06-04T04:58:51;3.50;;;1.83;;
10295;SDS011;5193;51.032;6.356;2023-06-04T05:01:17;3.27;;;2.10;;
10295;SDS011;5193;51.032;6.356;2023-06-04T05:03:43;3.60;;;2.13;;
10295;SDS011;5193;51.032;6.356;2023-06-04T05:06:08;3.93;;;1.90;;
10295;SDS011;5193;51.032;6.356;2023-06-04T05:08:34;5.13;;;2.43;;
10295;SDS011;5193;51.032;6.356;2023-06-04T05:11:00;2.47;;;2.10;;
10295;SDS011;5193;51.032;6.356;2023-06-04T05:13:25;9.43;;;2.83;;
10295;SDS011;5193;51.032;6.356;2023-06-04T05:15:51;3.63;;;2.30;;
10295;SDS011;5193;51.032;6.356;2023-06-04T05:18:20;3.57;;;2.00;;
10295;SDS011;5193;51.032;6.356;2023-06-04T05:20:46;6.93;;;2.13;;
10295;SDS011;5193;51.032;6.356;2023-06-04T05:23:12;2.23;;;1.77;;
10295;SDS011;5193;51.032;6.356;2023-06-04T05:25:37;2.43;;;1.97;;
10295;SDS011;5193;51.032;6.356;2023-06-04T05:28:03;2.70;;;2.10;;
10295;SDS011;5193;51.032;6.356;2023-06-04T05:30:31;6.40;;;2.20;;
10295;SDS011;5193;51.032;6.356;2023-06-04T05:32:58;7.07;;;2.13;;
10295;SDS011;5193;51.032;6.356;2023-06-04T05:35:24;8.20;;;2.50;;
10295;SDS011;5193;51.032;6.356;2023-06-04T05:37:50;3.90;;;2.10;;
10295;SDS011;5193;51.032;6.356;2023-06-04T05:40:18;4.17;;;2.17;;
10295;SDS011;5193;51.032;6.356;2023-06-04T05:42:46;6.10;;;2.23;;
10295;SDS011;5193;51.032;6.356;2023-06-04T05:45:12;3.53;;;2.00;;
10295;SDS011;5193;51.032;6.356;2023-06-04T05:47:37;5.73;;;2.20;;
10295;SDS011;5193;51.032;6.356;2023-06-04T05:50:03;3.30;;;2.00;;
10295;SDS011;5193;51.032;6.356;2023-06-04T05:52:31;4.33;;;2.03;;
10295;SDS011;5193;51.032;6.356;2023-06-04T05:54:57;7.43;;;1.93;;
10295;SDS011;5193;51.032;6.356;2023-06-04T05:57:22;2.50;;;2.03;;
10295;SDS011;5193;51.032;6.356;2023-06-04T05:59:48;3.97;;;2.40;;
10295;SDS011;5193;51.032;6.356;2023-06-04T06:02:13;8.10;;;2.10;;
10295;SDS011;5193;51.032;6.356;2023-06-04T06:04:39;3.23;;;1.90;;
10295;SDS011;5193;51.032;6.356;2023-06-04T06:07:05;2.53;;;1.80;;
10295;SDS011;5193;51.032;6.356;2023-06-04T06:09:31;4.90;;;1.43;;
10295;SDS011;5193;51.032;6.356;2023-06-04T06:11:56;3.70;;;1.70;;
10295;SDS011;5193;51.032;6.356;2023-06-04T06:14:23;5.63;;;2.50;;
10295;SDS011;5193;51.032;6.356;2023-06-04T06:16:48;5.13;;;2.00;;
10295;SDS011;5193;51.032;6.356;2023-06-04T06:19:14;4.77;;;1.70;;
10295;SDS011;5193;51.032;6.356;2023-06-04T06:21:40;4.50;;;1.80;;
10295;SDS011;5193;51.032;6.356;2023-06-04T06:24:06;2.53;;;1.90;;
10295;SDS011;5193;51.032;6.356;2023-06-04T06:26:31;4.20;;;1.60;;
10295;SDS011;5193;51.032;6.356;2023-06-04T06:28:57;2.93;;;2.13;;
10295;SDS011;5193;51.032;6.356;2023-06-04T06:31:22;6.73;;;1.70;;
10295;SDS011;5193;51.032;6.356;2023-06-04T06:33:48;3.30;;;1.53;;
10295;SDS011;5193;51.032;6.356;2023-06-04T06:36:14;3.73;;;1.40;;
10295;SDS011;5193;51.032;6.356;2023-06-04T06:38:43;2.23;;;1.50;;
10295;SDS011;5193;51.032;6.356;2023-06-04T06:41:10;3.53;;;1.70;;
10295;SDS011;5193;51.032;6.356;2023-06-04T06:43:35;4.00;;;1.80;;
10295;SDS011;5193;51.032;6.356;2023-06-04T06:46:01;2.67;;;1.60;;
10295;SDS011;5193;51.032;6.356;2023-06-04T06:48:27;6.40;;;2.00;;
10295;SDS011;5193;51.032;6.356;2023-06-04T06:50:53;1.57;;;1.20;;
10295;SDS011;5193;51.032;6.356;2023-06-04T06:53:19;2.63;;;1.33;;
10295;SDS011;5193;51.032;6.356;2023-06-04T06:55:45;4.73;;;1.63;;
10295;SDS011;5193;51.032;6.356;2023-06-04T06:58:11;6.63;;;2.00;;
10295;SDS011;5193;51.032;6.356;2023-06-04T07:00:36;7.53;;;1.50;;
10295;SDS011;5193;51.032;6.356;2023-06-04T07:03:02;5.53;;;1.57;;
10295;SDS011;5193;51.032;6.356;2023-06-04T07:05:28;3.43;;;1.70;;
10295;SDS011;5193;51.032;6.356;2023-06-04T07:07:55;4.90;;;1.80;;
10295;SDS011;5193;51.032;6.356;2023-06-04T07:10:22;10.13;;;1.70;;
10295;SDS011;5193;51.032;6.356;2023-06-04T07:12:48;3.67;;;1.80;;
10295;SDS011;5193;51.032;6.356;2023-06-04T07:15:13;3.50;;;1.70;;
10295;SDS011;5193;51.032;6.356;2023-06-04T07:17:39;3.30;;;1.63;;
10295;SDS011;5193;51.032;6.356;2023-06-04T07:20:05;1.83;;;1.63;;
10295;SDS011;5193;51.032;6.356;2023-06-04T07:22:32;2.87;;;1.73;;
10295;SDS011;5193;51.032;6.356;2023-06-04T07:24:58;4.20;;;1.60;;
10295;SDS011;5193;51.032;6.356;2023-06-04T07:27:24;2.90;;;1.87;;
10295;SDS011;5193;51.032;6.356;2023-06-04T07:29:50;3.00;;;1.40;;
10295;SDS011;5193;51.032;6.356;2023-06-04T07:32:15;4.37;;;1.50;;
10295;SDS011;5193;51.032;6.356;2023-06-04T07:34:41;3.90;;;1.27;;
10295;SDS011;5193;51.032;6.356;2023-06-04T07:37:06;5.00;;;1.60;;
10295;SDS011;5193;51.032;6.356;2023-06-04T07:39:34;5.30;;;1.70;;
10295;SDS011;5193;51.032;6.356;2023-06-04T07:42:00;3.70;;;1.80;;
10295;SDS011;5193;51.032;6.356;2023-06-04T07:44:26;1.90;;;1.40;;
10295;SDS011;5193;51.032;6.356;2023-06-04T07:46:51;5.40;;;1.80;;
10295;SDS011;5193;51.032;6.356;2023-06-04T07:49:17;7.67;;;1.60;;
10295;SDS011;5193;51.032;6.356;2023-06-04T07:51:42;3.73;;;1.57;;
10295;SDS011;5193;51.032;6.356;2023-06-04T07:54:08;5.00;;;2.00;;
10295;SDS011;5193;51.032;6.356;2023-06-04T07:56:34;5.23;;;1.70;;
10295;SDS011;5193;51.032;6.356;2023-06-04T07:59:00;5.20;;;1.97;;
10295;SDS011;5193;51.032;6.356;2023-06-04T08:01:25;9.53;;;1.70;;
10295;SDS011;5193;51.032;6.356;2023-06-04T08:03:51;6.23;;;1.60;;
10295;SDS011;5193;51.032;6.356;2023-06-04T08:06:16;5.30;;;1.67;;
10295;SDS011;5193;51.032;6.356;2023-06-04T08:08:42;4.53;;;1.53;;
10295;SDS011;5193;51.032;6.356;2023-06-04T08:11:13;3.53;;;1.50;;
10295;SDS011;5193;51.032;6.356;2023-06-04T08:13:40;2.07;;;1.70;;
10295;SDS011;5193;51.032;6.356;2023-06-04T08:16:06;6.87;;;1.80;;
10295;SDS011;5193;51.032;6.356;2023-06-04T08:18:32;3.77;;;1.90;;
10295;SDS011;5193;51.032;6.356;2023-06-04T08:20:58;6.50;;;1.50;;
10295;SDS011;5193;51.032;6.356;2023-06-04T08:23:23;2.60;;;1.50;;
10295;SDS011;5193;51.032;6.356;2023-06-04T08:25:49;5.53;;;1.87;;
10295;SDS011;5193;51.032;6.356;2023-06-04T08:28:15;2.90;;;1.50;;
10295;SDS011;5193;51.032;6.356;2023-06-04T08:30:41;5.33;;;1.40;;
10295;SDS011;5193;51.032;6.356;2023-06-04T08:33:07;2.07;;;1.30;;
10295;SDS011;5193;51.032;6.356;2023-06-04T08:35:33;4.60;;;1.50;;
10295;SDS011;5193;51.032;6.356;2023-06-04T08:37:58;4.30;;;1.73;;
10295;SDS011;5193;51.032;6.356;2023-06-04T08:40:24;2.57;;;1.50;;
10295;SDS011;5193;51.032;6.356;2023-06-04T08:42:50;5.57;;;1.33;;
10295;SDS011;5193;51.032;6.356;2023-06-04T08:45:17;2.40;;;1.50;;
10295;SDS011;5193;51.032;6.356;2023-06-04T08:47:48;2.77;;;1.60;;
10295;SDS011;5193;51.032;6.356;2023-06-04T08:50:19;3.30;;;1.60;;
10295;SDS011;5193;51.032;6.356;2023-06-04T08:52:53;4.77;;;1.43;;
10295;SDS011;5193;51.032;6.356;2023-06-04T08:55:20;5.40;;;1.70;;
10295;SDS011;5193;51.032;6.356;2023-06-04T08:57:47;2.53;;;1.47;;
10295;SDS011;5193;51.032;6.356;2023-06-04T09:00:15;9.70;;;2.10;;
10295;SDS011;5193;51.032;6.356;2023-06-04T09:02:41;2.87;;;1.50;;
10295;SDS011;5193;51.032;6.356;2023-06-04T09:05:08;3.63;;;1.40;;
10295;SDS011;5193;51.032;6.356;2023-06-04T09:07:35;5.00;;;1.30;;
10295;SDS011;5193;51.032;6.356;2023-06-04T09:10:04;4.90;;;1.70;;
10295;SDS011;5193;51.032;6.356;2023-06-04T09:12:32;3.50;;;1.43;;
10295;SDS011;5193;51.032;6.356;2023-06-04T09:15:00;6.67;;;1.70;;
10295;SDS011;5193;51.032;6.356;2023-06-04T09:17:26;2.60;;;1.50;;
10295;SDS011;5193;51.032;6.356;2023-06-04T09:19:53;2.10;;;1.20;;
10295;SDS011;5193;51.032;6.356;2023-06-04T09:22:19;2.10;;;1.37;;
10295;SDS011;5193;51.032;6.356;2023-06-04T09:24:45;3.63;;;1.87;;
10295;SDS011;5193;51.032;6.356;2023-06-04T09:27:16;6.70;;;1.60;;
10295;SDS011;5193;51.032;6.356;2023-06-04T09:29:50;4.30;;;1.57;;
10295;SDS011;5193;51.032;6.356;2023-06-04T09:34:47;2.37;;;1.50;;
10295;SDS011;5193;51.032;6.356;2023-06-04T09:37:14;2.00;;;1.43;;
10295;SDS011;5193;51.032;6.356;2023-06-04T09:39:42;3.50;;;1.63;;
10295;SDS011;5193;51.032;6.356;2023-06-04T09:42:08;1.60;;;1.50;;
10295;SDS011;5193;51.032;6.356;2023-06-04T09:44:42;4.33;;;1.50;;
10295;SDS011;5193;51.032;6.356;2023-06-04T09:47:10;2.20;;;1.67;;
10295;SDS011;5193;51.032;6.356;2023-06-04T09:49:40;5.53;;;1.40;;
10295;SDS011;5193;51.032;6.356;2023-06-04T09:52:06;5.07;;;2.03;;
10295;SDS011;5193;51.032;6.356;2023-06-04T09:54:38;4.60;;;1.60;;
10295;SDS011;5193;51.032;6.356;2023-06-04T09:57:16;4.33;;;1.57;;
10295;SDS011;5193;51.032;6.356;2023-06-04T09:59:46;5.97;;;1.60;;
10295;SDS011;5193;51.032;6.356;2023-06-04T10:02:18;1.57;;;1.40;;
10295;SDS011;5193;51.032;6.356;2023-06-04T10:04:44;2.87;;;1.50;;
10295;SDS011;5193;51.032;6.356;2023-06-04T10:07:14;2.87;;;1.50;;
10295;SDS011;5193;51.032;6.356;2023-06-04T10:09:41;3.07;;;1.40;;
10295;SDS011;5193;51.032;6.356;2023-06-04T10:12:10;2.13;;;1.60;;
10295;SDS011;5193;51.032;6.356;2023-06-04T10:14:51;7.57;;;1.53;;
10295;SDS011;5193;51.032;6.356;2023-06-04T10:17:21;2.80;;;1.50;;
10295;SDS011;5193;51.032;6.356;2023-06-04T10:19:47;2.20;;;1.60;;
10295;SDS011;5193;51.032;6.356;2023-06-04T10:22:17;2.90;;;1.50;;
10295;SDS011;5193;51.032;6.356;2023-06-04T10:24:43;3.50;;;1.60;;
10295;SDS011;5193;51.032;6.356;2023-06-04T10:27:09;4.97;;;1.70;;
10295;SDS011;5193;51.032;6.356;2023-06-04T10:29:37;1.50;;;1.07;;
10295;SDS011;5193;51.032;6.356;2023-06-04T10:32:04;4.13;;;1.70;;
10295;SDS011;5193;51.032;6.356;2023-06-04T10:34:30;3.73;;;1.50;;
10295;SDS011;5193;51.032;6.356;2023-06-04T10:36:56;2.20;;;1.43;;
10295;SDS011;5193;51.032;6.356;2023-06-04T10:39:25;3.10;;;1.43;;
10295;SDS011;5193;51.032;6.356;2023-06-04T10:42:02;1.40;;;1.30;;
10295;SDS011;5193;51.032;6.356;2023-06-04T10:44:30;2.00;;;1.43;;
10295;SDS011;5193;51.032;6.356;2023-06-04T10:47:17;3.07;;;1.70;;
10295;SDS011;5193;51.032;6.356;2023-06-04T10:49:53;4.93;;;1.63;;
10295;SDS011;5193;51.032;6.356;2023-06-04T10:52:20;2.63;;;1.60;;
10295;SDS011;5193;51.032;6.356;2023-06-04T10:54:47;2.60;;;1.50;;
10295;SDS011;5193;51.032;6.356;2023-06-04T10:57:18;4.80;;;1.52;;
10295;SDS011;5193;51.032;6.356;2023-06-04T10:59:53;5.25;;;1.52;;
10295;SDS011;5193;51.032;6.356;2023-06-04T11:02:20;3.25;;;1.75;;
10295;SDS011;5193;51.032;6.356;2023-06-04T11:04:46;4.28;;;1.60;;
10295;SDS011;5193;51.032;6.356;2023-06-04T11:07:11;3.97;;;1.70;;
10295;SDS011;5193;51.032;6.356;2023-06-04T11:09:38;3.92;;;1.75;;
10295;SDS011;5193;51.032;6.356;2023-06-04T11:12:13;3.95;;;1.45;;
10295;SDS011;5193;51.032;6.356;2023-06-04T11:14:38;1.92;;;1.70;;
10295;SDS011;5193;51.032;6.356;2023-06-04T11:17:11;2.35;;;1.40;;
10295;SDS011;5193;51.032;6.356;2023-06-04T11:19:40;3.17;;;1.67;;
10295;SDS011;5193;51.032;6.356;2023-06-04T11:22:05;4.53;;;1.60;;
10295;SDS011;5193;51.032;6.356;2023-06-04T11:24:35;2.13;;;1.60;;
10295;SDS011;5193;51.032;6.356;2023-06-04T11:27:00;9.98;;;1.90;;
10295;SDS011;5193;51.032;6.356;2023-06-04T11:29:27;6.90;;;1.50;;
10295;SDS011;5193;51.032;6.356;2023-06-04T11:31:53;8.25;;;1.83;;
10295;SDS011;5193;51.032;6.356;2023-06-04T11:34:37;6.63;;;1.92;;
10295;SDS011;5193;51.032;6.356;2023-06-04T11:37:09;4.47;;;1.55;;
10295;SDS011;5193;51.032;6.356;2023-06-04T11:39:35;2.95;;;1.60;;
10295;SDS011;5193;51.032;6.356;2023-06-04T11:42:06;3.33;;;1.60;;
10295;SDS011;5193;51.032;6.356;2023-06-04T11:44:32;5.72;;;1.70;;
10295;SDS011;5193;51.032;6.356;2023-06-04T11:46:58;2.03;;;1.45;;
10295;SDS011;5193;51.032;6.356;2023-06-04T11:49:24;2.00;;;1.50;;
10295;SDS011;5193;51.032;6.356;2023-06-04T11:51:52;2.88;;;1.67;;
10295;SDS011;5193;51.032;6.356;2023-06-04T11:54:18;2.13;;;1.30;;
10295;SDS011;5193;51.032;6.356;2023-06-04T11:56:46;1.80;;;1.40;;
10295;SDS011;5193;51.032;6.356;2023-06-04T11:59:14;2.45;;;1.63;;
10295;SDS011;5193;51.032;6.356;2023-06-04T12:01:44;2.72;;;1.60;;
10295;SDS011;5193;51.032;6.356;2023-06-04T12:04:15;2.70;;;1.38;;
10295;SDS011;5193;51.032;6.356;2023-06-04T12:09:20;3.47;;;1.42;;
10295;SDS011;5193;51.032;6.356;2023-06-04T12:11:47;1.63;;;1.27;;
10295;SDS011;5193;51.032;6.356;2023-06-04T12:14:15;1.65;;;1.38;;
10295;SDS011;5193;51.032;6.356;2023-06-04T12:16:43;4.05;;;1.85;;
10295;SDS011;5193;51.032;6.356;2023-06-04T12:19:10;2.72;;;1.60;;
10295;SDS011;5193;51.032;6.356;2023-06-04T12:21:37;5.43;;;1.90;;
10295;SDS011;5193;51.032;6.356;2023-06-04T12:26:32;2.00;;;1.52;;
10295;SDS011;5193;51.032;6.356;2023-06-04T12:29:02;3.72;;;1.60;;
10295;SDS011;5193;51.032;6.356;2023-06-04T12:31:35;3.17;;;1.90;;
10295;SDS011;5193;51.032;6.356;2023-06-04T12:34:01;1.60;;;1.33;;
10295;SDS011;5193;51.032;6.356;2023-06-04T12:36:27;2.92;;;1.67;;
10295;SDS011;5193;51.032;6.356;2023-06-04T12:39:00;2.42;;;1.80;;
10295;SDS011;5193;51.032;6.356;2023-06-04T12:41:27;4.78;;;1.45;;
10295;SDS011;5193;51.032;6.356;2023-06-04T12:43:54;3.65;;;1.55;;
10295;SDS011;5193;51.032;6.356;2023-06-04T12:46:20;1.60;;;1.50;;
10295;SDS011;5193;51.032;6.356;2023-06-04T12:48:47;5.70;;;1.75;;
10295;SDS011;5193;51.032;6.356;2023-06-04T12:51:13;2.25;;;1.70;;
10295;SDS011;5193;51.032;6.356;2023-06-04T12:53:39;2.78;;;1.70;;
10295;SDS011;5193;51.032;6.356;2023-06-04T12:56:05;2.40;;;1.73;;
10295;SDS011;5193;51.032;6.356;2023-06-04T12:58:31;4.80;;;1.65;;
10295;SDS011;5193;51.032;6.356;2023-06-04T13:00:57;5.82;;;1.52;;
10295;SDS011;5193;51.032;6.356;2023-06-04T13:03:22;2.25;;;1.67;;
10295;SDS011;5193;51.032;6.356;2023-06-04T13:05:48;4.45;;;1.65;;
10295;SDS011;5193;51.032;6.356;2023-06-04T13:08:15;2.85;;;1.88;;
10295;SDS011;5193;51.032;6.356;2023-06-04T13:10:41;2.70;;;1.70;;
10295;SDS011;5193;51.032;6.356;2023-06-04T13:13:06;2.75;;;1.35;;
10295;SDS011;5193;51.032;6.356;2023-06-04T13:15:32;2.00;;;1.73;;
10295;SDS011;5193;51.032;6.356;2023-06-04T13:17:57;1.63;;;1.50;;
10295;SDS011;5193;51.032;6.356;2023-06-04T13:20:24;3.53;;;1.60;;
10295;SDS011;5193;51.032;6.356;2023-06-04T13:22:50;2.00;;;1.60;;
10295;SDS011;5193;51.032;6.356;2023-06-04T13:25:15;3.38;;;1.88;;
10295;SDS011;5193;51.032;6.356;2023-06-04T13:27:41;2.75;;;1.48;;
10295;SDS011;5193;51.032;6.356;2023-06-04T13:30:07;3.00;;;1.55;;
10295;SDS011;5193;51.032;6.356;2023-06-04T13:32:32;4.53;;;1.60;;
10295;SDS011;5193;51.032;6.356;2023-06-04T13:34:58;4.53;;;1.70;;
10295;SDS011;5193;51.032;6.356;2023-06-04T13:37:23;2.33;;;1.42;;
10295;SDS011;5193;51.032;6.356;2023-06-04T13:39:49;2.83;;;1.60;;
10295;SDS011;5193;51.032;6.356;2023-06-04T13:42:15;1.70;;;1.60;;
10295;SDS011;5193;51.032;6.356;2023-06-04T13:44:40;1.92;;;1.60;;
10295;SDS011;5193;51.032;6.356;2023-06-04T13:47:06;2.47;;;1.60;;
10295;SDS011;5193;51.032;6.356;2023-06-04T13:49:34;4.10;;;1.80;;
10295;SDS011;5193;51.032;6.356;2023-06-04T13:52:00;7.70;;;1.77;;
10295;SDS011;5193;51.032;6.356;2023-06-04T13:54:26;1.90;;;1.55;;
10295;SDS011;5193;51.032;6.356;2023-06-04T13:56:51;3.00;;;1.58;;
10295;SDS011;5193;51.032;6.356;2023-06-04T13:59:17;2.28;;;1.60;;
10295;SDS011;5193;51.032;6.356;2023-06-04T14:01:43;3.28;;;1.80;;
10295;SDS011;5193;51.032;6.356;2023-06-04T14:04:08;4.00;;;1.45;;
10295;SDS011;5193;51.032;6.356;2023-06-04T14:06:36;3.53;;;1.70;;
10295;SDS011;5193;51.032;6.356;2023-06-04T14:09:02;2.25;;;1.50;;
10295;SDS011;5193;51.032;6.356;2023-06-04T14:11:28;2.35;;;1.52;;
10295;SDS011;5193;51.032;6.356;2023-06-04T14:13:54;1.67;;;1.58;;
10295;SDS011;5193;51.032;6.356;2023-06-04T14:16:20;2.35;;;1.40;;
10295;SDS011;5193;51.032;6.356;2023-06-04T14:18:46;2.30;;;1.50;;
10295;SDS011;5193;51.032;6.356;2023-06-04T14:21:11;2.72;;;1.60;;
10295;SDS011;5193;51.032;6.356;2023-06-04T14:23:37;2.80;;;1.85;;
10295;SDS011;5193;51.032;6.356;2023-06-04T14:26:02;3.00;;;1.55;;
10295;SDS011;5193;51.032;6.356;2023-06-04T14:28:28;1.63;;;1.35;;
10295;SDS011;5193;51.032;6.356;2023-06-04T14:30:54;3.08;;;1.80;;
10295;SDS011;5193;51.032;6.356;2023-06-04T14:33:20;4.95;;;1.77;;
10295;SDS011;5193;51.032;6.356;2023-06-04T14:35:45;3.83;;;1.73;;
10295;SDS011;5193;51.032;6.356;2023-06-04T14:38:14;6.20;;;2.05;;
10295;SDS011;5193;51.032;6.356;2023-06-04T14:40:41;1.77;;;1.60;;
10295;SDS011;5193;51.032;6.356;2023-06-04T14:43:08;3.50;;;1.70;;
10295;SDS011;5193;51.032;6.356;2023-06-04T14:45:37;2.33;;;1.60;;
10295;SDS011;5193;51.032;6.356;2023-06-04T14:48:06;3.50;;;2.00;;
10295;SDS011;5193;51.032;6.356;2023-06-04T14:50:31;5.18;;;1.70;;
10295;SDS011;5193;51.032;6.356;2023-06-04T14:52:57;2.78;;;1.70;;
10295;SDS011;5193;51.032;6.356;2023-06-04T14:55:24;3.00;;;1.90;;
10295;SDS011;5193;51.032;6.356;2023-06-04T14:57:50;2.25;;;1.52;;
10295;SDS011;5193;51.032;6.356;2023-06-04T15:00:15;2.22;;;1.70;;
10295;SDS011;5193;51.032;6.356;2023-06-04T15:02:41;5.40;;;1.92;;
10295;SDS011;5193;51.032;6.356;2023-06-04T15:05:07;7.20;;;2.10;;
10295;SDS011;5193;51.032;6.356;2023-06-04T15:07:33;6.18;;;2.13;;
10295;SDS011;5193;51.032;6.356;2023-06-04T15:09:59;1.85;;;1.38;;
10295;SDS011;5193;51.032;6.356;2023-06-04T15:12:27;3.28;;;1.70;;